createdAt,value
2022-11-21T00:01:14.122Z,0.63
2022-11-21T00:03:41.006Z,0.15
2022-11-21T00:06:08.007Z,0.20
2022-11-21T00:08:34.821Z,0.20
2022-11-21T00:11:01.653Z,1.35
2022-11-21T00:13:28.554Z,0.10
2022-11-21T00:15:55.300Z,1.35
2022-11-21T00:18:22.069Z,0.15
2022-11-21T00:20:48.860Z,0.57
2022-11-21T00:23:15.730Z,1.92
2022-11-21T00:25:42.611Z,0.95
2022-11-21T00:28:09.410Z,0.00
2022-11-21T00:30:36.252Z,0.75
2022-11-21T00:33:03.173Z,1.23
2022-11-21T00:35:31.101Z,0.20
2022-11-21T00:37:58.043Z,1.35
2022-11-21T00:40:24.942Z,1.55
2022-11-21T00:42:51.812Z,0.90
2022-11-21T00:45:24.133Z,1.67
2022-11-21T00:47:51.390Z,0.40
2022-11-21T00:50:18.294Z,1.02
2022-11-21T00:52:45.118Z,2.60
2022-11-21T00:55:11.895Z,0.45
2022-11-21T00:57:38.689Z,0.10
2022-11-21T01:00:06.262Z,0.20
2022-11-21T01:02:33.329Z,1.85
2022-11-21T01:05:00.229Z,0.52
2022-11-21T01:07:27.130Z,1.08
2022-11-21T01:09:54.150Z,0.30
2022-11-21T01:12:20.994Z,0.47
2022-11-21T01:14:47.819Z,0.35
2022-11-21T01:17:14.697Z,0.82
2022-11-21T01:19:41.535Z,0.05
2022-11-21T01:22:08.600Z,0.52
2022-11-21T01:24:35.575Z,0.70
2022-11-21T01:27:02.408Z,1.27
2022-11-21T01:29:29.408Z,0.10
2022-11-21T01:31:56.397Z,1.10
2022-11-21T01:34:23.327Z,0.65
2022-11-21T01:36:50.112Z,0.10
2022-11-21T01:39:16.999Z,0.30
2022-11-21T01:41:45.972Z,0.63
2022-11-21T01:44:28.030Z,0.20
2022-11-21T01:46:55.567Z,0.70
2022-11-21T01:49:27.402Z,0.73
2022-11-21T01:51:56.728Z,2.03
2022-11-21T01:54:34.281Z,1.17
2022-11-21T01:57:17.436Z,2.47
2022-11-21T01:59:47.963Z,0.57
2022-11-21T02:02:20.849Z,0.55
2022-11-21T02:04:49.925Z,8.52
2022-11-21T02:07:21.171Z,1.45
2022-11-21T02:09:53.656Z,0.20
2022-11-21T02:12:24.832Z,0.15
2022-11-21T02:14:53.225Z,1.13
2022-11-21T02:17:20.077Z,4.57
2022-11-21T02:19:57.513Z,9.77
2022-11-21T02:22:28.098Z,0.20
2022-11-21T02:25:08.474Z,0.50
2022-11-21T02:27:35.833Z,0.05
2022-11-21T02:30:04.647Z,1.50
2022-11-21T02:32:46.883Z,1.75
2022-11-21T02:35:15.836Z,1.25
2022-11-21T02:37:45.137Z,0.85
2022-11-21T02:40:18.336Z,1.05
2022-11-21T02:43:01.519Z,9.82
2022-11-21T02:45:44.299Z,0.50
2022-11-21T02:48:12.230Z,0.47
2022-11-21T02:50:41.991Z,1.45
2022-11-21T02:53:12.051Z,2.30
2022-11-21T02:55:39.298Z,1.00
2022-11-21T02:58:06.537Z,3.97
2022-11-21T03:00:35.081Z,8.10
2022-11-21T03:03:02.114Z,0.20
2022-11-21T03:05:28.988Z,1.60
2022-11-21T03:25:35.758Z,5.13
2022-11-21T03:28:02.564Z,2.10
2022-11-21T03:30:29.472Z,1.15
2022-11-21T03:32:57.524Z,6.10
2022-11-21T03:35:24.848Z,2.17
2022-11-21T03:37:51.721Z,8.23
2022-11-21T03:40:18.587Z,2.42
2022-11-21T03:42:45.511Z,4.97
2022-11-21T03:45:12.464Z,1.70
2022-11-21T03:47:39.410Z,1.08
2022-11-21T03:50:06.684Z,21.17
2022-11-21T03:52:33.781Z,18.55
2022-11-21T03:55:00.574Z,23.65
2022-11-21T03:57:27.426Z,21.83
2022-11-21T03:59:54.190Z,23.92
2022-11-21T04:02:21.048Z,18.70
2022-11-21T04:04:47.975Z,21.58
2022-11-21T04:07:14.934Z,21.45
2022-11-21T04:09:41.854Z,25.77
2022-11-21T04:12:08.944Z,21.17
2022-11-21T04:14:35.901Z,23.38
2022-11-21T04:17:02.649Z,20.83
2022-11-21T04:19:29.541Z,18.42
2022-11-21T04:21:56.412Z,18.98
2022-11-21T04:24:23.257Z,21.17
2022-11-21T04:26:50.089Z,28.65
2022-11-21T04:29:16.958Z,19.73
2022-11-21T04:31:43.847Z,24.67
2022-11-21T04:34:10.925Z,22.80
2022-11-21T04:36:37.884Z,20.33
2022-11-21T04:39:04.947Z,20.88
2022-11-21T04:41:31.983Z,25.30
2022-11-21T04:43:58.829Z,23.52
2022-11-21T04:46:25.716Z,22.48
2022-11-21T04:48:52.622Z,24.90
2022-11-21T04:51:19.518Z,19.83
2022-11-21T04:53:46.341Z,25.83
2022-11-21T04:56:16.640Z,17.92
2022-11-21T04:58:44.971Z,33.65
2022-11-21T05:01:12.598Z,15.23
2022-11-21T05:03:39.736Z,24.27
2022-11-21T05:06:06.617Z,23.67
2022-11-21T05:08:34.014Z,21.58
2022-11-21T05:11:19.614Z,19.13
2022-11-21T05:13:47.177Z,22.85
2022-11-21T05:16:14.087Z,23.40
2022-11-21T05:18:40.886Z,33.75
2022-11-21T05:21:07.716Z,32.00
2022-11-21T05:23:34.626Z,23.63
2022-11-21T05:26:01.833Z,23.23
2022-11-21T05:28:28.778Z,21.33
2022-11-21T05:30:55.594Z,24.17
2022-11-21T05:33:22.430Z,25.92
2022-11-21T05:35:49.554Z,26.42
2022-11-21T05:38:16.540Z,27.05
2022-11-21T05:40:43.359Z,25.10
2022-11-21T05:43:30.999Z,17.13
2022-11-21T05:45:57.832Z,18.23
2022-11-21T05:48:24.757Z,23.25
2022-11-21T05:50:51.624Z,20.10
2022-11-21T05:53:18.944Z,23.20
2022-11-21T05:55:46.584Z,12.85
2022-11-21T05:58:13.821Z,17.92
2022-11-21T06:00:40.686Z,19.33
2022-11-21T06:03:28.872Z,19.17
2022-11-21T06:05:58.675Z,20.80
2022-11-21T06:08:25.969Z,26.77
2022-11-21T06:10:52.905Z,19.65
2022-11-21T06:13:22.547Z,19.77
2022-11-21T06:15:51.678Z,18.55
2022-11-21T06:18:19.178Z,16.10
2022-11-21T06:20:46.474Z,15.82
2022-11-21T06:23:13.365Z,15.00
2022-11-21T06:25:40.314Z,17.75
2022-11-21T06:28:07.023Z,24.45
2022-11-21T06:30:33.953Z,18.95
2022-11-21T06:33:04.114Z,18.42
2022-11-21T06:35:30.980Z,0.63
2022-11-21T06:38:01.100Z,1.90
2022-11-21T06:40:27.986Z,2.63
2022-11-21T06:42:54.904Z,0.95
2022-11-21T06:45:21.630Z,0.98
2022-11-21T06:47:48.591Z,4.07
2022-11-21T06:50:15.774Z,0.98
2022-11-21T06:52:42.638Z,1.40
2022-11-21T06:55:10.877Z,1.45
2022-11-21T06:57:37.851Z,3.40
2022-11-21T07:00:06.032Z,5.28
2022-11-21T07:02:32.997Z,1.17
2022-11-21T07:04:59.850Z,0.75
2022-11-21T07:07:26.749Z,0.93
2022-11-21T07:09:53.601Z,1.25
2022-11-21T07:12:38.984Z,5.57
2022-11-21T07:15:06.500Z,12.32
2022-11-21T07:17:33.258Z,2.60
2022-11-21T07:20:00.103Z,0.98
2022-11-21T07:22:26.922Z,1.33
2022-11-21T07:24:53.808Z,0.80
2022-11-21T07:27:20.639Z,9.75
2022-11-21T07:29:47.471Z,0.60
2022-11-21T07:32:15.167Z,4.72
2022-11-21T07:34:41.971Z,12.27
2022-11-21T07:37:08.897Z,3.42
2022-11-21T07:39:35.737Z,1.13
2022-11-21T07:42:02.661Z,0.73
2022-11-21T07:44:30.046Z,0.98
2022-11-21T07:46:56.927Z,2.33
2022-11-21T07:49:23.801Z,14.73
2022-11-21T07:51:50.903Z,15.38
2022-11-21T07:54:17.826Z,20.27
2022-11-21T07:56:44.672Z,16.58
2022-11-21T07:59:11.685Z,12.40
2022-11-21T08:01:43.990Z,16.83
2022-11-21T08:04:12.180Z,11.95
2022-11-21T08:06:39.145Z,10.77
2022-11-21T08:09:05.969Z,15.50
2022-11-21T08:11:32.899Z,9.40
2022-11-21T08:13:59.835Z,9.00
2022-11-21T08:16:28.295Z,11.00
2022-11-21T08:18:55.266Z,14.85
2022-11-21T08:21:22.236Z,12.82
2022-11-21T08:23:49.327Z,11.85
2022-11-21T08:26:16.744Z,13.70
2022-11-21T08:28:43.658Z,10.75
2022-11-21T08:31:10.850Z,12.60
2022-11-21T08:33:37.718Z,8.30
2022-11-21T08:36:07.903Z,14.93
2022-11-21T08:38:34.768Z,15.00
2022-11-21T08:41:20.145Z,15.70
2022-11-21T08:43:47.031Z,12.80
2022-11-21T08:46:14.051Z,17.05
2022-11-21T08:48:40.923Z,14.55
2022-11-21T08:51:07.762Z,19.00
2022-11-21T08:53:34.559Z,16.13
2022-11-21T08:56:04.182Z,12.52
2022-11-21T08:58:31.609Z,13.48
2022-11-21T09:00:59.712Z,15.05
2022-11-21T09:03:30.798Z,14.82
2022-11-21T09:05:59.928Z,13.48
2022-11-21T09:08:26.968Z,14.52
2022-11-21T09:10:53.824Z,10.93
2022-11-21T09:13:20.795Z,18.55
2022-11-21T09:16:06.489Z,20.02
2022-11-21T09:18:33.586Z,15.70
2022-11-21T09:21:00.587Z,11.60
2022-11-21T09:23:27.449Z,13.57
2022-11-21T09:25:54.458Z,12.65
2022-11-21T09:28:21.419Z,17.40
2022-11-21T09:30:48.386Z,12.57
2022-11-21T09:33:17.076Z,12.32
2022-11-21T09:35:44.170Z,12.82
2022-11-21T09:38:11.450Z,19.17
2022-11-21T09:40:43.735Z,13.82
2022-11-21T09:43:36.342Z,17.40
2022-11-21T09:46:06.169Z,19.15
2022-11-21T09:49:05.126Z,19.85
2022-11-21T09:51:32.356Z,12.40
2022-11-21T09:54:07.715Z,18.50
2022-11-21T09:56:41.400Z,16.40
2022-11-21T09:59:38.914Z,19.33
2022-11-21T10:02:18.180Z,24.85
2022-11-21T10:04:47.173Z,20.90
2022-11-21T10:07:22.527Z,20.77
2022-11-21T10:10:10.523Z,25.67
2022-11-21T10:12:44.330Z,16.77
2022-11-21T10:15:54.068Z,13.57
2022-11-21T10:18:45.486Z,18.45
2022-11-21T10:21:24.490Z,17.67
2022-11-21T10:24:12.621Z,21.83
2022-11-21T10:26:49.616Z,15.48
2022-11-21T10:29:19.471Z,13.95
2022-11-21T10:31:47.202Z,19.13
2022-11-21T10:34:19.870Z,14.32
2022-11-21T10:36:55.604Z,12.90
2022-11-21T10:39:41.380Z,18.70
2022-11-21T10:42:58.201Z,17.08
2022-11-21T10:45:25.372Z,21.17
2022-11-21T10:47:53.526Z,20.23
2022-11-21T10:50:49.200Z,16.98
2022-11-21T10:53:40.256Z,22.95
2022-11-21T10:56:14.791Z,16.02
2022-11-21T10:58:44.395Z,18.00
2022-11-21T11:01:31.067Z,17.27
2022-11-21T11:04:28.556Z,15.13
2022-11-21T11:06:57.501Z,14.00
2022-11-21T11:09:28.603Z,16.35
2022-11-21T11:12:46.620Z,19.60
2022-11-21T11:15:24.942Z,19.33
2022-11-21T11:17:57.691Z,18.33
2022-11-21T11:20:41.231Z,16.25
2022-11-21T11:23:20.175Z,20.38
2022-11-21T11:25:50.252Z,19.20
2022-11-21T11:28:19.390Z,18.20
2022-11-21T11:30:48.111Z,19.90
2022-11-21T11:33:37.501Z,19.80
2022-11-21T11:36:13.110Z,17.42
2022-11-21T11:38:44.172Z,19.55
2022-11-21T11:41:26.371Z,19.60
2022-11-21T11:44:39.031Z,23.50
2022-11-21T11:47:30.709Z,17.92
2022-11-21T11:50:13.960Z,20.75
2022-11-21T11:52:59.462Z,19.15
2022-11-21T11:55:47.602Z,17.20
2022-11-21T11:58:39.788Z,16.80
2022-11-21T12:01:13.745Z,17.23
2022-11-21T12:04:12.852Z,23.10
2022-11-21T12:07:46.646Z,20.75
2022-11-21T12:10:09.197Z,20.92
2022-11-21T12:12:39.382Z,15.23
2022-11-21T12:15:37.096Z,16.73
2022-11-21T12:18:26.062Z,22.90
2022-11-21T12:21:00.122Z,15.98
2022-11-21T12:26:20.396Z,17.20
2022-11-21T12:28:56.357Z,16.55
2022-11-21T12:31:32.445Z,15.93
2022-11-21T12:34:04.629Z,22.35
2022-11-21T12:36:51.214Z,25.15
2022-11-21T12:39:48.176Z,14.32
2022-11-21T12:42:44.325Z,10.70
2022-11-21T12:45:29.116Z,11.10
2022-11-21T12:48:32.927Z,9.27
2022-11-21T12:51:42.171Z,8.30
2022-11-21T12:54:37.997Z,10.32
2022-11-21T12:57:11.833Z,12.60
2022-11-21T13:00:09.964Z,11.00
2022-11-21T13:02:39.966Z,9.98
2022-11-21T13:05:12.816Z,12.60
2022-11-21T13:07:40.847Z,11.02
2022-11-21T13:10:15.226Z,9.23
2022-11-21T13:13:06.310Z,8.02
2022-11-21T13:15:49.680Z,9.10
2022-11-21T13:18:25.544Z,5.57
2022-11-21T13:20:52.959Z,6.72
2022-11-21T13:23:37.403Z,7.20
2022-11-21T13:29:16.167Z,4.18
2022-11-21T13:31:43.696Z,6.10
2022-11-21T13:34:33.912Z,4.35
2022-11-21T13:37:01.380Z,4.82
2022-11-21T13:39:31.831Z,7.20
2022-11-21T13:42:21.448Z,3.80
2022-11-21T13:44:49.592Z,7.55
2022-11-21T13:47:25.680Z,4.00
2022-11-21T13:50:04.298Z,3.28
2022-11-21T13:53:10.718Z,4.40
2022-11-21T13:56:08.482Z,5.03
2022-11-21T13:58:56.470Z,7.25
2022-11-21T14:01:48.541Z,3.53
2022-11-21T14:04:21.546Z,5.07
2022-11-21T14:06:48.595Z,13.63
2022-11-21T14:09:21.571Z,10.63
2022-11-21T14:12:13.732Z,10.65
2022-11-21T14:14:53.558Z,7.75
2022-11-21T14:17:50.822Z,6.28
2022-11-21T14:20:25.546Z,3.63
2022-11-21T14:23:05.388Z,5.82
2022-11-21T14:25:41.124Z,3.75
2022-11-21T14:28:24.229Z,3.70
2022-11-21T14:30:58.226Z,5.05
2022-11-21T14:36:20.727Z,4.00
2022-11-21T14:39:13.904Z,4.28
2022-11-21T14:41:39.993Z,4.78
2022-11-21T14:44:15.752Z,7.03
2022-11-21T14:46:44.221Z,7.68
2022-11-21T14:49:17.340Z,3.85
2022-11-21T14:51:58.320Z,5.90
2022-11-21T14:54:28.872Z,6.13
2022-11-21T14:57:02.725Z,7.10
2022-11-21T14:59:39.252Z,8.05
2022-11-21T15:02:17.262Z,7.32
2022-11-21T15:04:45.179Z,3.03
2022-11-21T15:07:31.875Z,5.55
2022-11-21T15:10:28.642Z,7.90
2022-11-21T15:28:09.452Z,5.55
2022-11-21T15:30:38.188Z,2.88
2022-11-21T15:33:18.947Z,1.60
2022-11-21T15:35:54.925Z,1.35
2022-11-21T15:38:31.046Z,0.75
2022-11-21T15:41:10.251Z,2.95
2022-11-21T15:43:48.156Z,5.45
2022-11-21T15:46:29.870Z,1.25
2022-11-21T15:48:59.107Z,0.65
2022-11-21T15:54:34.741Z,2.65
2022-11-21T15:57:01.527Z,2.13
2022-11-21T15:59:28.789Z,0.52
2022-11-21T16:01:55.784Z,1.52
2022-11-21T16:04:26.012Z,0.38
2022-11-21T16:06:54.101Z,0.38
2022-11-21T16:09:23.049Z,1.35
2022-11-21T16:11:49.934Z,0.50
2022-11-21T16:14:18.613Z,1.38
2022-11-21T16:16:47.502Z,0.70
2022-11-21T16:19:15.601Z,0.77
2022-11-21T16:21:42.944Z,1.27
2022-11-21T16:24:09.817Z,1.75
2022-11-21T16:26:36.884Z,1.65
2022-11-21T16:29:05.760Z,1.58
2022-11-21T16:31:33.350Z,0.70
2022-11-21T16:34:00.860Z,2.03
2022-11-21T16:36:32.417Z,1.40
2022-11-21T16:39:07.869Z,0.85
2022-11-21T16:41:36.411Z,1.40
2022-11-21T16:44:03.384Z,2.90
2022-11-21T16:46:30.286Z,1.58
2022-11-21T16:49:02.660Z,3.42
2022-11-21T16:51:30.541Z,1.20
2022-11-21T16:54:01.585Z,4.07
2022-11-21T16:56:29.881Z,18.90
2022-11-21T16:58:56.789Z,27.02
2022-11-21T17:01:26.128Z,54.38
2022-11-21T17:03:53.238Z,43.35
2022-11-21T17:06:22.466Z,110.03
2022-11-21T17:08:49.770Z,16.75
2022-11-21T17:11:19.692Z,62.58
2022-11-21T17:13:47.765Z,177.57
2022-11-21T17:16:16.953Z,97.22
2022-11-21T17:18:44.777Z,8.68
2022-11-21T17:21:15.755Z,5.75
2022-11-21T17:23:44.535Z,3.45
2022-11-21T17:26:16.557Z,2.58
2022-11-21T17:28:46.103Z,0.43
2022-11-21T17:31:15.930Z,1.88
2022-11-21T17:33:43.771Z,1.48
2022-11-21T17:36:15.053Z,1.33
2022-11-21T17:38:47.081Z,0.43
2022-11-21T17:41:16.877Z,0.20
2022-11-21T17:43:44.734Z,1.27
2022-11-21T17:46:14.739Z,1.05
2022-11-21T17:48:41.667Z,0.65
2022-11-21T17:51:12.527Z,1.13
2022-11-21T17:53:41.733Z,1.33
2022-11-21T17:56:12.456Z,0.55
2022-11-21T17:58:39.403Z,1.25
2022-11-21T18:01:08.011Z,1.50
2022-11-21T18:03:35.866Z,0.65
2022-11-21T18:06:15.257Z,0.90
2022-11-21T18:08:44.247Z,3.90
2022-11-21T18:11:12.907Z,1.75
2022-11-21T18:13:40.792Z,1.55
2022-11-21T18:16:10.527Z,0.63
2022-11-21T18:18:37.691Z,1.30
2022-11-21T18:21:13.170Z,0.40
2022-11-21T18:23:40.093Z,2.45
2022-11-21T18:26:11.297Z,1.02
2022-11-21T18:28:38.384Z,1.85
2022-11-21T18:31:10.330Z,0.57
2022-11-21T18:33:38.418Z,1.95
2022-11-21T18:36:06.748Z,2.28
2022-11-21T18:38:56.590Z,1.67
2022-11-21T18:41:24.738Z,0.70
2022-11-21T18:44:00.456Z,0.55
2022-11-21T18:46:28.851Z,0.85
2022-11-21T18:49:11.935Z,1.65
2022-11-21T18:51:38.818Z,1.17
2022-11-21T18:54:08.699Z,0.93
2022-11-21T18:56:37.627Z,0.47
2022-11-21T18:59:06.121Z,0.95
2022-11-21T19:01:34.940Z,0.47
2022-11-21T19:04:02.134Z,0.57
2022-11-21T19:06:29.343Z,0.55
2022-11-21T19:08:58.346Z,1.00
2022-11-21T19:11:28.603Z,3.78
2022-11-21T19:13:56.751Z,1.45
2022-11-21T19:16:26.521Z,0.75
2022-11-21T19:21:43.684Z,1.83
2022-11-21T19:24:13.426Z,1.08
2022-11-21T19:26:41.154Z,1.33
2022-11-21T19:29:08.274Z,1.02
2022-11-21T19:31:40.748Z,0.95
2022-11-21T19:34:11.900Z,0.30
2022-11-21T19:36:39.547Z,0.75
2022-11-21T19:39:06.695Z,0.60
2022-11-21T19:41:33.572Z,0.93
2022-11-21T19:44:01.729Z,0.32
2022-11-21T19:46:37.011Z,0.77
2022-11-21T19:49:05.101Z,0.80
2022-11-21T19:51:40.858Z,0.75
2022-11-21T19:54:09.698Z,3.25
2022-11-21T19:56:37.337Z,6.88
2022-11-21T19:59:05.005Z,0.30
2022-11-21T20:01:33.664Z,0.30
2022-11-21T20:04:02.811Z,1.80
2022-11-21T20:06:34.846Z,0.40
2022-11-21T20:09:05.898Z,0.20
2022-11-21T20:11:33.469Z,0.22
2022-11-21T20:14:00.627Z,1.17
2022-11-21T20:16:33.378Z,6.32
2022-11-21T20:19:02.964Z,0.57
2022-11-21T20:21:30.318Z,0.55
2022-11-21T20:23:57.385Z,0.00
2022-11-21T20:26:25.018Z,0.20
2022-11-21T20:28:52.127Z,0.28
2022-11-21T20:31:21.788Z,0.10
2022-11-21T20:36:39.152Z,0.80
2022-11-21T20:39:18.128Z,0.45
2022-11-21T20:41:46.044Z,0.00
2022-11-21T20:47:03.342Z,0.65
2022-11-21T20:49:30.564Z,0.35
2022-11-21T20:54:44.671Z,4.38
2022-11-21T20:57:15.091Z,5.63
2022-11-21T20:59:43.005Z,1.40
2022-11-21T21:02:14.350Z,0.25
2022-11-21T21:04:41.838Z,1.65
2022-11-21T21:07:08.853Z,1.25
2022-11-21T21:09:40.914Z,0.50
2022-11-21T21:12:08.732Z,0.40
2022-11-21T21:14:35.862Z,0.82
2022-11-21T21:17:02.826Z,0.93
2022-11-21T21:19:30.026Z,0.57
2022-11-21T21:21:57.267Z,67.47
2022-11-21T21:24:24.094Z,19.13
2022-11-21T21:26:50.963Z,7.90
2022-11-21T21:29:19.690Z,0.90
2022-11-21T21:31:51.073Z,0.65
2022-11-21T21:34:18.981Z,0.57
2022-11-21T21:36:45.905Z,2.17
2022-11-21T21:39:12.955Z,1.17
2022-11-21T21:41:41.551Z,0.30
2022-11-21T21:44:08.365Z,1.08
2022-11-21T21:46:35.229Z,0.68
2022-11-21T21:49:02.145Z,0.28
2022-11-21T21:51:30.771Z,0.73
2022-11-21T21:53:59.191Z,0.93
2022-11-21T21:56:27.963Z,7.55
2022-11-21T21:58:57.118Z,9.63
2022-11-21T22:01:26.826Z,8.70
2022-11-21T22:04:02.462Z,5.13
2022-11-21T22:06:30.082Z,1.65
2022-11-21T22:08:57.170Z,0.10
2022-11-21T22:11:31.936Z,1.40
2022-11-21T22:14:01.673Z,1.05
2022-11-21T22:16:29.255Z,0.43
2022-11-21T22:18:56.831Z,0.43
2022-11-21T22:21:34.788Z,0.22
2022-11-21T22:24:31.053Z,1.25
2022-11-21T22:26:58.143Z,1.50
2022-11-21T22:29:25.458Z,1.55
2022-11-21T22:31:52.511Z,19.92
2022-11-21T22:34:19.453Z,2.63
2022-11-21T22:36:46.995Z,7.05
2022-11-21T22:39:14.413Z,13.63
2022-11-21T22:41:41.356Z,7.28
2022-11-21T22:44:08.560Z,4.38
2022-11-21T22:46:35.463Z,0.98
2022-11-21T22:49:02.366Z,2.08
2022-11-21T22:51:29.980Z,0.93
2022-11-21T22:53:58.062Z,6.15
2022-11-21T22:56:26.661Z,4.50
2022-11-21T22:58:54.073Z,0.40
2022-11-21T23:01:24.087Z,0.85
2022-11-21T23:03:51.774Z,0.73
2022-11-21T23:06:21.378Z,1.98
2022-11-21T23:08:48.558Z,3.38
2022-11-21T23:11:26.301Z,0.82
2022-11-21T23:13:54.204Z,0.73
2022-11-21T23:16:21.594Z,45.33
2022-11-21T23:18:48.868Z,9.70
2022-11-21T23:21:15.671Z,0.90
2022-11-21T23:23:44.110Z,3.28
2022-11-21T23:26:11.794Z,0.88
2022-11-21T23:28:38.742Z,2.85
2022-11-21T23:31:05.575Z,4.35
2022-11-21T23:33:32.362Z,0.95
2022-11-21T23:35:59.312Z,0.95
2022-11-21T23:38:26.728Z,3.58
2022-11-21T23:40:53.620Z,1.85
2022-11-21T23:43:20.748Z,2.63
2022-11-21T23:45:52.056Z,3.25
2022-11-21T23:48:19.847Z,3.58
2022-11-21T23:50:48.230Z,2.85
2022-11-21T23:53:15.247Z,2.10
2022-11-21T23:55:43.463Z,4.80
2022-11-21T23:58:12.661Z,6.47
